Terminal Aerodrome Forecast
Issued by NWS Atlanta, GA

Home | Current Version | Previous Version | Text Only | Print | Product List | Glossary On
Versions: 1 2 3 4 5 6 7 8 9 10 11 12 13 14
879
FTUS42 KFFC 132337
TAFMCN
TAF
KMCN 132337Z 1400/1424 33010KT P6SM SKC
     FM140200 35008KT P6SM FEW200
     FM140600 03004KT P6SM SCT150
     FM141200 10008KT P6SM BKN150
     FM142100 14008KT P6SM BKN150=

USA.gov is the U.S. government's official web portal to all federal, state and local government web resources and services.